createdAt,value
2022-11-23T00:00:31.666Z,98081.09
2022-11-23T00:03:20.857Z,98074.38
2022-11-23T00:06:09.107Z,98077.75
2022-11-23T00:08:56.815Z,98077.50
2022-11-23T00:11:44.655Z,98075.41
2022-11-23T00:14:32.865Z,98075.91
2022-11-23T00:17:20.529Z,98078.00
2022-11-23T00:20:11.295Z,98073.91
2022-11-23T00:22:58.963Z,98070.53
2022-11-23T00:25:47.063Z,98071.81
2022-11-23T00:28:38.870Z,98079.13
2022-11-23T00:31:26.881Z,98077.06
2022-11-23T00:34:14.629Z,98079.13
2022-11-23T00:37:03.780Z,98077.31
2022-11-23T00:39:51.665Z,98091.59
2022-11-23T00:42:39.494Z,98090.03
2022-11-23T00:45:27.349Z,98092.09
2022-11-23T00:48:15.065Z,98100.16
2022-11-23T00:51:03.408Z,98092.09
2022-11-23T00:53:53.445Z,98097.03
2022-11-23T00:56:41.539Z,98096.78
2022-11-23T00:59:30.173Z,98108.75
2022-11-23T01:02:18.432Z,98105.13
2022-11-23T01:05:06.816Z,98104.06
2022-11-23T01:07:54.811Z,98113.44
2022-11-23T01:10:43.773Z,98103.81
2022-11-23T01:13:32.295Z,98094.97
2022-11-23T01:16:24.422Z,98103.06
2022-11-23T01:19:15.136Z,98112.91
2022-11-23T01:22:02.879Z,98111.91
2022-11-23T01:24:52.191Z,98106.47
2022-11-23T01:27:41.328Z,98111.09
2022-11-23T01:30:29.311Z,98105.13
2022-11-23T01:33:17.168Z,98107.22
2022-11-23T01:36:12.061Z,98102.25
2022-11-23T01:39:01.441Z,98104.63
2022-11-23T01:41:49.598Z,98110.84
2022-11-23T01:44:39.774Z,98098.38
2022-11-23T01:47:27.668Z,98105.38
2022-11-23T01:50:15.952Z,98108.25
2022-11-23T01:53:04.019Z,98106.16
2022-11-23T01:55:53.906Z,98105.66
2022-11-23T01:58:46.311Z,98113.47
2022-11-23T02:01:35.743Z,98109.34
2022-11-23T02:04:31.247Z,98104.66
2022-11-23T02:07:20.137Z,98111.97
2022-11-23T02:10:09.916Z,98110.16
2022-11-23T02:12:57.928Z,98107.81
2022-11-23T02:15:45.935Z,98112.00
2022-11-23T02:18:39.738Z,98106.25
2022-11-23T02:21:27.304Z,98113.00
2022-11-23T02:24:25.551Z,98110.16
2022-11-23T02:27:16.145Z,98108.06
2022-11-23T02:30:05.437Z,98111.19
2022-11-23T02:32:53.066Z,98110.41
2022-11-23T02:35:51.351Z,98112.75
2022-11-23T02:38:39.110Z,98117.69
2022-11-23T02:41:27.039Z,98109.16
2022-11-23T02:44:28.597Z,98106.81
2022-11-23T02:47:16.695Z,98103.72
2022-11-23T02:50:05.106Z,98106.06
2022-11-23T02:52:52.956Z,98107.84
2022-11-23T02:55:40.970Z,98113.31
2022-11-23T02:58:29.081Z,98109.94
2022-11-23T03:01:17.935Z,98099.06
2022-11-23T03:04:08.048Z,98103.19
2022-11-23T03:06:55.702Z,98097.75
2022-11-23T03:09:43.348Z,98100.59
2022-11-23T03:12:30.919Z,98104.56
2022-11-23T03:15:19.657Z,98108.47
2022-11-23T03:18:09.769Z,98103.53
2022-11-23T03:20:57.539Z,98104.31
2022-11-23T03:23:45.410Z,98089.50
2022-11-23T03:26:34.516Z,98094.69
2022-11-23T03:29:30.431Z,98095.72
2022-11-23T03:32:20.272Z,98101.72
2022-11-23T03:35:12.618Z,98102.47
2022-11-23T03:38:20.532Z,98099.88
2022-11-23T03:41:08.368Z,98106.91
2022-11-23T03:44:15.802Z,98104.03
2022-11-23T03:47:03.623Z,98104.31
2022-11-23T03:49:51.247Z,98103.28
2022-11-23T03:52:39.899Z,98103.28
2022-11-23T03:55:27.856Z,98100.94
2022-11-23T03:58:15.159Z,98099.63
2022-11-23T04:01:03.252Z,98107.97
2022-11-23T04:03:50.744Z,98111.06
2022-11-23T04:06:49.066Z,98104.31
2022-11-23T04:09:42.016Z,98107.69
2022-11-23T04:12:53.259Z,98104.81
2022-11-23T04:15:40.782Z,98106.38
2022-11-23T04:18:29.492Z,98107.41
2022-11-23T04:21:16.820Z,98098.00
2022-11-23T04:24:05.990Z,98096.22
2022-11-23T04:26:57.444Z,98098.00
2022-11-23T04:29:45.518Z,98103.78
2022-11-23T04:32:33.160Z,98097.53
2022-11-23T04:35:22.451Z,98107.41
2022-11-23T04:38:11.831Z,98102.22
2022-11-23T04:40:59.482Z,98096.00
2022-11-23T04:43:51.820Z,98096.25
2022-11-23T04:46:39.597Z,98098.84
2022-11-23T04:49:32.537Z,98094.97
2022-11-23T04:52:20.230Z,98097.03
2022-11-23T04:55:10.855Z,98097.53
2022-11-23T04:58:07.032Z,98099.63
2022-11-23T05:00:58.344Z,98091.00
2022-11-23T05:03:46.006Z,98097.53
2022-11-23T05:06:33.337Z,98088.72
2022-11-23T05:09:21.030Z,98089.50
2022-11-23T05:12:21.840Z,98086.66
2022-11-23T05:15:11.860Z,98083.25
2022-11-23T05:18:04.243Z,98089.75
2022-11-23T05:20:51.900Z,98097.28
2022-11-23T05:23:39.815Z,98099.63
2022-11-23T05:26:27.287Z,98093.13
2022-11-23T05:29:14.680Z,98100.69
2022-11-23T05:32:02.087Z,98091.34
2022-11-23T05:34:51.114Z,98092.13
2022-11-23T05:37:40.020Z,98093.38
2022-11-23T05:40:30.947Z,98083.53
2022-11-23T05:43:20.445Z,98088.72
2022-11-23T05:46:08.381Z,98084.03
2022-11-23T05:48:57.431Z,98092.34
2022-11-23T05:51:46.907Z,98095.47
2022-11-23T05:54:34.639Z,98099.13
2022-11-23T05:57:27.596Z,98094.91
2022-11-23T06:00:17.226Z,98102.16
2022-11-23T06:03:16.943Z,98103.44
2022-11-23T06:06:06.627Z,98102.16
2022-11-23T06:09:01.503Z,98106.84
2022-11-23T06:11:50.618Z,98099.84
2022-11-23T06:14:40.735Z,98102.16
2022-11-23T06:17:28.301Z,98110.75
2022-11-23T06:20:21.852Z,98112.03
2022-11-23T06:23:17.557Z,98103.19
2022-11-23T06:26:06.562Z,98106.13
2022-11-23T06:28:56.037Z,98105.31
2022-11-23T06:31:43.317Z,98111.56
2022-11-23T06:34:30.658Z,98099.63
2022-11-23T06:37:18.072Z,98113.13
2022-11-23T06:40:13.101Z,98105.88
2022-11-23T06:43:02.777Z,98099.13
2022-11-23T06:45:59.257Z,98107.63
2022-11-23T06:48:49.966Z,98107.09
2022-11-23T06:51:37.235Z,98113.31
2022-11-23T06:54:27.435Z,98115.13
2022-11-23T06:57:16.225Z,98112.53
2022-11-23T07:00:07.139Z,98113.56
2022-11-23T07:02:58.530Z,98121.88
2022-11-23T07:05:28.482Z,98127.63
2022-11-23T07:07:58.180Z,98128.41
2022-11-23T07:10:29.288Z,98121.69
2022-11-23T07:13:06.026Z,98121.44
2022-11-23T07:15:38.895Z,98125.09
2022-11-23T07:18:09.283Z,98131.31
2022-11-23T07:20:40.304Z,98125.59
2022-11-23T07:23:12.299Z,98129.75
2022-11-23T07:25:43.819Z,98131.84
2022-11-23T07:28:14.873Z,98126.91
2022-11-23T07:30:45.711Z,98133.94
2022-11-23T07:33:16.099Z,98133.97
2022-11-23T07:35:45.270Z,98129.56
2022-11-23T07:38:14.464Z,98136.59
2022-11-23T07:40:45.112Z,98148.03
2022-11-23T07:43:26.077Z,98146.44
2022-11-23T07:45:58.330Z,98150.88
2022-11-23T07:48:29.738Z,98152.94
2022-11-23T07:51:02.263Z,98144.66
2022-11-23T07:53:31.394Z,98150.88
2022-11-23T07:56:00.476Z,98156.09
2022-11-23T07:58:29.653Z,98151.69
2022-11-23T08:01:00.121Z,98149.66
2022-11-23T08:03:29.918Z,98157.72
2022-11-23T08:05:59.438Z,98153.06
2022-11-23T08:08:28.551Z,98150.75
2022-11-23T08:10:57.630Z,98149.22
2022-11-23T08:13:26.703Z,98141.44
2022-11-23T08:15:56.187Z,98143.75
2022-11-23T08:18:26.622Z,98137.22
2022-11-23T08:20:55.870Z,98139.78
2022-11-23T08:23:25.729Z,98136.13
2022-11-23T08:25:54.839Z,98141.03
2022-11-23T08:28:23.940Z,98141.00
2022-11-23T08:30:52.964Z,98145.38
2022-11-23T08:33:22.038Z,98139.41
2022-11-23T08:35:52.472Z,98142.50
2022-11-23T08:38:21.512Z,98136.22
2022-11-23T08:40:50.545Z,98140.91
2022-11-23T08:43:19.560Z,98146.09
2022-11-23T08:45:48.649Z,98150.50
2022-11-23T08:48:17.630Z,98147.38
2022-11-23T08:50:46.709Z,98149.44
2022-11-23T08:53:17.432Z,98148.91
2022-11-23T08:55:46.749Z,98150.72
2022-11-23T08:58:15.766Z,98150.41
2022-11-23T09:00:44.774Z,98147.78
2022-11-23T09:03:13.821Z,98156.34
2022-11-23T09:05:42.874Z,98150.06
2022-11-23T09:08:11.983Z,98157.38
2022-11-23T09:10:42.448Z,98154.44
2022-11-23T09:13:11.606Z,98138.25
2022-11-23T09:15:40.690Z,98151.22
2022-11-23T09:18:11.486Z,98151.13
2022-11-23T09:20:41.464Z,98149.72
2022-11-23T09:23:14.335Z,98153.97
2022-11-23T09:25:48.366Z,98151.19
2022-11-23T09:28:19.649Z,98153.34
2022-11-23T09:30:49.055Z,98150.31
2022-11-23T09:33:18.061Z,98155.38
2022-11-23T09:35:47.139Z,98149.19
2022-11-23T09:38:16.966Z,98152.97
2022-11-23T09:40:47.347Z,98152.47
2022-11-23T09:43:42.041Z,98160.34
2022-11-23T09:46:23.625Z,98162.44
2022-11-23T09:49:15.626Z,98150.31
2022-11-23T09:51:46.595Z,98147.88
2022-11-23T09:54:27.057Z,98144.25
2022-11-23T09:57:01.819Z,98137.53
2022-11-23T09:59:42.894Z,98139.88
2022-11-23T10:02:22.385Z,98133.03
2022-11-23T10:04:54.079Z,98142.78
2022-11-23T10:07:43.089Z,98145.31
2022-11-23T10:10:27.872Z,98132.78
2022-11-23T10:13:12.600Z,98133.00
2022-11-23T10:15:56.087Z,98132.69
2022-11-23T10:18:36.713Z,98125.03
2022-11-23T10:21:21.010Z,98129.66
2022-11-23T10:23:57.571Z,98128.81
2022-11-23T10:26:31.759Z,98118.50
2022-11-23T10:29:14.201Z,98124.13
2022-11-23T10:31:54.024Z,98124.00
2022-11-23T10:34:41.667Z,98112.84
2022-11-23T10:37:13.419Z,98115.78
2022-11-23T10:39:42.526Z,98107.25
2022-11-23T10:42:22.720Z,98112.38
2022-11-23T10:44:54.515Z,98104.28
2022-11-23T10:47:40.167Z,98103.97
2022-11-23T10:50:32.358Z,98102.69
2022-11-23T10:53:14.864Z,98101.97
2022-11-23T10:55:54.998Z,98098.81
2022-11-23T10:58:31.290Z,98093.00
2022-11-23T11:01:04.568Z,98099.25
2022-11-23T11:03:36.218Z,98097.47
2022-11-23T11:06:09.046Z,98093.19
2022-11-23T11:08:51.772Z,98081.59
2022-11-23T11:11:28.022Z,98079.72
2022-11-23T11:14:06.521Z,98082.22
2022-11-23T11:16:39.235Z,98084.63
2022-11-23T11:19:27.971Z,98083.13
2022-11-23T11:21:57.616Z,98080.84
2022-11-23T11:24:33.886Z,98077.41
2022-11-23T11:27:06.351Z,98072.13
2022-11-23T11:29:40.443Z,98072.28
2022-11-23T11:32:18.929Z,98065.91
2022-11-23T11:34:52.017Z,98058.03
2022-11-23T11:37:33.525Z,98056.84
2022-11-23T11:40:11.634Z,98057.31
2022-11-23T11:42:46.131Z,98069.16
2022-11-23T11:45:22.388Z,98071.00
2022-11-23T11:48:00.039Z,98064.78
2022-11-23T11:50:35.159Z,98058.28
2022-11-23T11:53:09.453Z,98050.50
2022-11-23T11:55:52.453Z,98050.50
2022-11-23T11:58:25.836Z,98048.22
2022-11-23T12:01:05.058Z,98047.88
2022-11-23T12:03:43.104Z,98040.94
2022-11-23T12:06:25.189Z,98041.41
2022-11-23T12:09:02.963Z,98041.88
2022-11-23T12:11:32.055Z,98033.81
2022-11-23T12:14:04.503Z,98037.41
2022-11-23T12:16:45.614Z,98028.41
2022-11-23T12:19:21.355Z,98025.28
2022-11-23T12:22:14.443Z,98023.78
2022-11-23T12:25:25.833Z,98026.06
2022-11-23T12:28:10.536Z,98022.34
2022-11-23T12:30:50.347Z,98017.81
2022-11-23T12:33:49.156Z,98019.38
2022-11-23T12:36:44.197Z,98018.16
2022-11-23T12:39:43.743Z,98000.03
2022-11-23T12:42:20.570Z,98001.28
2022-11-23T12:45:03.772Z,98007.47
2022-11-23T12:47:48.392Z,98013.72
2022-11-23T12:50:27.557Z,98025.34
2022-11-23T12:53:34.213Z,98019.66
2022-11-23T12:56:15.199Z,98018.34
2022-11-23T12:58:47.870Z,98018.94
2022-11-23T13:01:26.399Z,98020.09
2022-11-23T13:04:51.096Z,98014.81
2022-11-23T13:07:54.526Z,98010.47
2022-11-23T13:10:50.381Z,98021.25
2022-11-23T13:13:59.369Z,98008.41
2022-11-23T13:16:42.554Z,98010.91
2022-11-23T13:19:42.202Z,98004.81
2022-11-23T13:22:16.707Z,98007.78
2022-11-23T13:25:15.259Z,98004.81
2022-11-23T13:27:59.670Z,97995.53
2022-11-23T13:30:59.139Z,97993.03
2022-11-23T13:33:34.430Z,97996.28
2022-11-23T13:36:11.531Z,98001.06
2022-11-23T13:38:45.233Z,97992.28
2022-11-23T13:42:00.575Z,97986.19
2022-11-23T13:44:33.459Z,97980.25
2022-11-23T13:47:20.743Z,97976.66
2022-11-23T13:49:51.599Z,97967.03
2022-11-23T13:52:36.135Z,97966.56
2022-11-23T13:55:20.760Z,97949.13
2022-11-23T13:58:39.220Z,97945.34
2022-11-23T14:01:10.655Z,97936.28
2022-11-23T14:03:52.507Z,97935.31
2022-11-23T14:06:34.869Z,97938.66
2022-11-23T14:09:14.788Z,97932.41
2022-11-23T14:11:59.783Z,97934.59
2022-11-23T14:14:41.651Z,97934.38
2022-11-23T14:18:03.208Z,97930.19
2022-11-23T14:20:53.121Z,97927.09
2022-11-23T14:24:21.615Z,97923.47
2022-11-23T14:27:38.958Z,97916.22
2022-11-23T14:30:07.912Z,97915.69
2022-11-23T14:32:52.244Z,97908.44
2022-11-23T14:35:34.255Z,97910.31
2022-11-23T14:38:41.911Z,97910.13
2022-11-23T14:41:17.764Z,97902.38
2022-11-23T14:43:48.482Z,97902.13
2022-11-23T14:46:20.153Z,97902.19
2022-11-23T14:48:52.804Z,97897.00
2022-11-23T14:51:26.543Z,97896.50
2022-11-23T14:54:00.315Z,97897.28
2022-11-23T14:56:35.428Z,97904.84
2022-11-23T14:59:08.603Z,97907.16
2022-11-23T15:01:38.512Z,97912.91
2022-11-23T15:05:01.345Z,97916.53
2022-11-23T15:12:44.517Z,97917.44
2022-11-23T15:15:20.582Z,97907.00
2022-11-23T15:17:54.139Z,97908.88
2022-11-23T15:20:30.033Z,97905.75
2022-11-23T15:22:59.084Z,97912.00
2022-11-23T15:25:28.478Z,97913.84
2022-11-23T15:27:57.786Z,97918.00
2022-11-23T15:30:30.563Z,97916.44
2022-11-23T15:33:01.323Z,97920.09
2022-11-23T15:35:36.513Z,97917.56
2022-11-23T15:38:12.863Z,97914.97
2022-11-23T15:40:45.553Z,97914.50
2022-11-23T15:43:16.467Z,97919.47
2022-11-23T15:46:06.223Z,97928.59
2022-11-23T15:48:37.110Z,97926.53
2022-11-23T15:51:09.734Z,97936.41
2022-11-23T15:53:50.207Z,97935.91
2022-11-23T15:56:26.794Z,97938.50
2022-11-23T15:58:56.781Z,97941.09
2022-11-23T16:01:25.942Z,97947.38
2022-11-23T16:04:01.103Z,97943.97
2022-11-23T16:06:40.285Z,97937.22
2022-11-23T16:09:50.405Z,97944.28
2022-11-23T16:12:27.805Z,97951.84
2022-11-23T16:14:59.457Z,97946.13
2022-11-23T16:17:30.316Z,97956.28
2022-11-23T16:20:04.017Z,97957.31
2022-11-23T16:22:37.763Z,97955.50
2022-11-23T16:25:17.538Z,97953.69
2022-11-23T16:27:47.416Z,97961.22
2022-11-23T16:30:25.214Z,97963.25
2022-11-23T16:32:54.524Z,97961.97
2022-11-23T16:35:23.526Z,97964.56
2022-11-23T16:37:53.930Z,97968.22
2022-11-23T16:40:23.024Z,97971.88
2022-11-23T16:42:53.676Z,97980.22
2022-11-23T16:45:22.723Z,97978.34
2022-11-23T16:47:56.484Z,97988.03
2022-11-23T16:50:25.890Z,97990.91
2022-11-23T16:52:56.695Z,97991.16
2022-11-23T16:55:25.725Z,97995.84
2022-11-23T16:57:56.075Z,97994.31
2022-11-23T17:00:25.415Z,97995.38
2022-11-23T17:02:54.585Z,98005.78
2022-11-23T17:05:24.643Z,98008.13
2022-11-23T17:07:55.132Z,98010.44
2022-11-23T17:10:24.313Z,98020.09
2022-11-23T17:12:55.809Z,98030.25
2022-11-23T17:15:25.729Z,98030.78
2022-11-23T17:17:54.793Z,98039.66
2022-11-23T17:20:24.698Z,98051.91
2022-11-23T17:23:00.101Z,98052.19
2022-11-23T17:25:30.471Z,98052.72
2022-11-23T17:28:01.418Z,98060.53
2022-11-23T17:30:31.434Z,98078.00
2022-11-23T17:33:01.140Z,98079.31
2022-11-23T17:35:35.292Z,98080.38
2022-11-23T17:38:08.281Z,98091.84
2022-11-23T17:40:37.338Z,98105.66
2022-11-23T17:43:06.497Z,98109.06
2022-11-23T17:45:35.770Z,98104.38
2022-11-23T17:48:05.555Z,98109.63
2022-11-23T17:50:34.653Z,98104.44
2022-11-23T17:53:03.686Z,98109.13
2022-11-23T17:55:34.237Z,98118.47
2022-11-23T17:58:03.241Z,98124.50
2022-11-23T18:00:33.328Z,98143.22
2022-11-23T18:03:02.414Z,98136.22
2022-11-23T18:05:31.742Z,98144.56
2022-11-23T18:08:00.718Z,98152.34
2022-11-23T18:10:29.931Z,98151.00
2022-11-23T18:13:00.310Z,98152.84
2022-11-23T18:15:30.340Z,98149.97
2022-11-23T18:18:04.455Z,98158.81
2022-11-23T18:20:34.362Z,98151.84
2022-11-23T18:23:03.560Z,98146.63
2022-11-23T18:25:32.638Z,98151.31
2022-11-23T18:28:03.070Z,98156.00
2022-11-23T18:30:32.153Z,98161.19
2022-11-23T18:33:01.299Z,98173.16
2022-11-23T18:35:30.722Z,98167.16
2022-11-23T18:37:59.718Z,98164.31
2022-11-23T18:40:28.794Z,98173.16
2022-11-23T18:42:58.684Z,98177.56
2022-11-23T18:45:29.648Z,98179.91
2022-11-23T18:47:58.642Z,98180.97
2022-11-23T18:50:27.692Z,98187.97
2022-11-23T18:52:56.901Z,98185.13
2022-11-23T18:55:25.953Z,98189.56
2022-11-23T18:57:55.491Z,98187.47
2022-11-23T19:00:24.924Z,98196.59
2022-11-23T19:02:57.114Z,98197.63
2022-11-23T19:05:28.068Z,98200.22
2022-11-23T19:08:04.152Z,98203.09
2022-11-23T19:10:35.116Z,98201.53
2022-11-23T19:13:06.085Z,98199.97
2022-11-23T19:15:35.690Z,98210.09
2022-11-23T19:18:06.505Z,98227.28
2022-11-23T19:20:35.719Z,98234.53
2022-11-23T19:23:04.782Z,98230.34
2022-11-23T19:25:33.969Z,98233.47
2022-11-23T19:28:02.902Z,98238.66
2022-11-23T19:30:31.982Z,98234.97
2022-11-23T19:33:00.959Z,98243.28
2022-11-23T19:35:31.346Z,98256.28
2022-11-23T19:38:00.358Z,98261.22
2022-11-23T19:40:29.552Z,98269.28
2022-11-23T19:42:58.503Z,98264.06
2022-11-23T19:45:27.526Z,98271.31
2022-11-23T19:47:56.508Z,98276.47
2022-11-23T19:50:25.585Z,98287.63
2022-11-23T19:53:11.685Z,98279.06
2022-11-23T19:55:41.679Z,98283.19
2022-11-23T19:58:10.708Z,98284.69
2022-11-23T20:00:39.820Z,98307.78
2022-11-23T20:03:08.824Z,98311.38
2022-11-23T20:05:38.057Z,98328.78
2022-11-23T20:08:09.148Z,98328.78
2022-11-23T20:10:38.191Z,98326.47
2022-11-23T20:13:07.192Z,98337.09
2022-11-23T20:15:36.303Z,98342.03
2022-11-23T20:18:05.490Z,98336.03
2022-11-23T20:20:34.602Z,98349.06
2022-11-23T20:23:03.608Z,98356.34
2022-11-23T20:25:36.734Z,98373.50
2022-11-23T20:28:06.579Z,98378.16
2022-11-23T20:30:36.136Z,98382.78
2022-11-23T20:33:05.612Z,98384.84
2022-11-23T20:35:34.780Z,98383.78
2022-11-23T20:38:04.966Z,98390.81
2022-11-23T20:40:35.450Z,98394.66
2022-11-23T20:43:04.618Z,98400.66
2022-11-23T20:45:33.673Z,98403.50
2022-11-23T20:48:02.678Z,98401.94
2022-11-23T20:50:32.027Z,98413.88
2022-11-23T20:53:02.999Z,98416.00
2022-11-23T20:55:33.903Z,98420.16
2022-11-23T20:58:02.936Z,98415.50
2022-11-23T21:00:32.092Z,98420.94
2022-11-23T21:03:01.080Z,98429.53
2022-11-23T21:05:49.128Z,98433.13
2022-11-23T21:08:37.403Z,98440.94
2022-11-23T21:11:45.936Z,98449.75
2022-11-23T21:14:34.190Z,98439.59
2022-11-23T21:17:22.369Z,98459.56
2022-11-23T21:20:10.911Z,98466.78
2022-11-23T21:22:58.458Z,98477.16
2022-11-23T21:25:45.702Z,98481.59
2022-11-23T21:28:34.680Z,98482.59
2022-11-23T21:31:22.341Z,98484.44
2022-11-23T21:34:12.295Z,98492.75
2022-11-23T21:37:00.136Z,98491.28
2022-11-23T21:39:52.714Z,98503.25
2022-11-23T21:42:40.586Z,98509.53
2022-11-23T21:45:29.167Z,98501.00
2022-11-23T21:48:16.656Z,98510.66
2022-11-23T21:51:07.375Z,98514.34
2022-11-23T21:53:55.196Z,98518.78
2022-11-23T21:56:43.237Z,98517.75
2022-11-23T21:59:30.447Z,98531.00
2022-11-23T22:02:19.377Z,98536.72
2022-11-23T22:05:07.098Z,98543.47
2022-11-23T22:08:27.591Z,98552.81
2022-11-23T22:11:02.295Z,98563.69
2022-11-23T22:13:54.335Z,98567.09
2022-11-23T22:16:43.716Z,98573.31
2022-11-23T22:19:32.841Z,98577.97
2022-11-23T22:22:20.158Z,98571.69
2022-11-23T22:25:08.764Z,98581.00
2022-11-23T22:27:56.247Z,98574.47
2022-11-23T22:30:43.564Z,98577.88
2022-11-23T22:33:31.623Z,98577.38
2022-11-23T22:36:22.799Z,98582.56
2022-11-23T22:39:10.958Z,98585.19
2022-11-23T22:41:59.065Z,98585.19
2022-11-23T22:44:46.589Z,98582.03
2022-11-23T22:47:34.625Z,98592.16
2022-11-23T22:50:22.091Z,98589.81
2022-11-23T22:53:11.352Z,98608.78
2022-11-23T22:56:02.946Z,98619.75
2022-11-23T22:58:51.010Z,98619.25
2022-11-23T23:01:38.601Z,98605.47
2022-11-23T23:04:27.085Z,98622.63
2022-11-23T23:07:14.651Z,98626.03
2022-11-23T23:10:03.352Z,98613.03
2022-11-23T23:12:53.350Z,98620.34
2022-11-23T23:15:40.663Z,98638.28
2022-11-23T23:18:27.913Z,98633.59
2022-11-23T23:21:17.867Z,98635.44
2022-11-23T23:24:05.869Z,98642.69
2022-11-23T23:26:54.688Z,98647.88
2022-11-23T23:29:42.140Z,98653.06
2022-11-23T23:32:29.464Z,98649.94
2022-11-23T23:35:16.956Z,98655.13
2022-11-23T23:38:04.586Z,98659.56
2022-11-23T23:40:55.639Z,98663.22
2022-11-23T23:43:44.714Z,98669.03
2022-11-23T23:46:32.088Z,98670.94
2022-11-23T23:49:19.357Z,98671.28
2022-11-23T23:52:06.826Z,98656.53
2022-11-23T23:54:54.390Z,98663.34
2022-11-23T23:57:42.152Z,98672.22
